sensor_id;sensor_type;location;lat;lon;timestamp;temperature;humidity
20594;DHT22;10455;48.732;10.266;2022-12-07T00:03:55;2.80;99.90
20594;DHT22;10455;48.732;10.266;2022-12-07T00:09:03;3.00;99.90
20594;DHT22;10455;48.732;10.266;2022-12-07T00:14:07;3.00;99.90
20594;DHT22;10455;48.732;10.266;2022-12-07T00:19:10;3.00;99.90
20594;DHT22;10455;48.732;10.266;2022-12-07T00:24:13;2.90;99.90
20594;DHT22;10455;48.732;10.266;2022-12-07T00:29:17;3.00;99.90
20594;DHT22;10455;48.732;10.266;2022-12-07T00:34:21;2.90;99.90
20594;DHT22;10455;48.732;10.266;2022-12-07T00:39:24;2.70;99.90
20594;DHT22;10455;48.732;10.266;2022-12-07T00:44:26;2.60;99.90
20594;DHT22;10455;48.732;10.266;2022-12-07T00:49:28;2.60;99.90
20594;DHT22;10455;48.732;10.266;2022-12-07T00:54:31;2.70;99.90
20594;DHT22;10455;48.732;10.266;2022-12-07T00:59:33;2.60;99.90
20594;DHT22;10455;48.732;10.266;2022-12-07T01:04:35;2.70;99.90
20594;DHT22;10455;48.732;10.266;2022-12-07T01:09:38;2.70;99.90
20594;DHT22;10455;48.732;10.266;2022-12-07T01:14:41;2.60;99.90
20594;DHT22;10455;48.732;10.266;2022-12-07T01:19:43;2.70;99.90
20594;DHT22;10455;48.732;10.266;2022-12-07T01:24:47;2.70;99.90
20594;DHT22;10455;48.732;10.266;2022-12-07T01:29:49;2.70;99.90
20594;DHT22;10455;48.732;10.266;2022-12-07T01:34:52;2.60;99.90
20594;DHT22;10455;48.732;10.266;2022-12-07T01:39:55;2.60;99.90
20594;DHT22;10455;48.732;10.266;2022-12-07T01:50:43;2.60;99.90
20594;DHT22;10455;48.732;10.266;2022-12-07T01:55:49;2.60;99.90
20594;DHT22;10455;48.732;10.266;2022-12-07T02:00:53;2.60;99.90
20594;DHT22;10455;48.732;10.266;2022-12-07T02:05:55;2.60;99.90
20594;DHT22;10455;48.732;10.266;2022-12-07T02:11:02;2.60;99.90
20594;DHT22;10455;48.732;10.266;2022-12-07T02:16:15;2.60;99.90
20594;DHT22;10455;48.732;10.266;2022-12-07T02:21:29;2.60;99.90
20594;DHT22;10455;48.732;10.266;2022-12-07T02:27:09;2.70;99.90
20594;DHT22;10455;48.732;10.266;2022-12-07T02:32:22;2.80;99.90
20594;DHT22;10455;48.732;10.266;2022-12-07T02:37:34;2.80;99.90
20594;DHT22;10455;48.732;10.266;2022-12-07T02:42:40;2.80;99.90
20594;DHT22;10455;48.732;10.266;2022-12-07T02:47:50;2.90;99.90
20594;DHT22;10455;48.732;10.266;2022-12-07T02:52:52;2.70;99.90
20594;DHT22;10455;48.732;10.266;2022-12-07T02:58:09;2.70;99.90
20594;DHT22;10455;48.732;10.266;2022-12-07T03:03:15;2.50;99.90
20594;DHT22;10455;48.732;10.266;2022-12-07T03:08:23;2.50;99.90
20594;DHT22;10455;48.732;10.266;2022-12-07T03:13:30;2.50;99.90
20594;DHT22;10455;48.732;10.266;2022-12-07T03:18:37;2.60;99.90
20594;DHT22;10455;48.732;10.266;2022-12-07T03:23:42;2.60;99.90
20594;DHT22;10455;48.732;10.266;2022-12-07T03:28:50;2.50;99.90
20594;DHT22;10455;48.732;10.266;2022-12-07T03:33:59;2.50;99.90
20594;DHT22;10455;48.732;10.266;2022-12-07T03:39:11;2.60;99.90
20594;DHT22;10455;48.732;10.266;2022-12-07T03:44:18;2.60;99.90
20594;DHT22;10455;48.732;10.266;2022-12-07T03:49:25;2.50;99.90
20594;DHT22;10455;48.732;10.266;2022-12-07T03:54:31;2.40;99.90
20594;DHT22;10455;48.732;10.266;2022-12-07T03:59:35;2.50;99.90
20594;DHT22;10455;48.732;10.266;2022-12-07T04:04:39;2.40;99.90
20594;DHT22;10455;48.732;10.266;2022-12-07T04:09:41;2.40;99.90
20594;DHT22;10455;48.732;10.266;2022-12-07T04:14:43;2.40;99.90
20594;DHT22;10455;48.732;10.266;2022-12-07T04:19:46;2.30;99.90
20594;DHT22;10455;48.732;10.266;2022-12-07T04:24:48;2.30;99.90
20594;DHT22;10455;48.732;10.266;2022-12-07T04:29:50;2.10;99.90
20594;DHT22;10455;48.732;10.266;2022-12-07T04:34:53;1.90;99.90
20594;DHT22;10455;48.732;10.266;2022-12-07T04:39:55;2.00;99.90
20594;DHT22;10455;48.732;10.266;2022-12-07T04:44:57;2.00;99.90
20594;DHT22;10455;48.732;10.266;2022-12-07T04:50:00;2.00;99.90
20594;DHT22;10455;48.732;10.266;2022-12-07T04:55:02;2.00;99.90
20594;DHT22;10455;48.732;10.266;2022-12-07T05:00:07;1.90;99.90
20594;DHT22;10455;48.732;10.266;2022-12-07T05:05:11;1.80;99.90
20594;DHT22;10455;48.732;10.266;2022-12-07T05:10:12;1.70;99.90
20594;DHT22;10455;48.732;10.266;2022-12-07T05:15:15;1.60;99.90
20594;DHT22;10455;48.732;10.266;2022-12-07T05:20:18;1.30;99.90
20594;DHT22;10455;48.732;10.266;2022-12-07T05:25:20;1.20;99.90
20594;DHT22;10455;48.732;10.266;2022-12-07T05:30:22;1.20;99.90
20594;DHT22;10455;48.732;10.266;2022-12-07T05:35:26;1.20;99.90
20594;DHT22;10455;48.732;10.266;2022-12-07T05:40:28;1.30;99.90
20594;DHT22;10455;48.732;10.266;2022-12-07T05:45:29;1.40;99.90
20594;DHT22;10455;48.732;10.266;2022-12-07T05:50:33;1.40;99.90
20594;DHT22;10455;48.732;10.266;2022-12-07T05:55:35;1.40;99.90
20594;DHT22;10455;48.732;10.266;2022-12-07T06:00:36;1.40;99.90
20594;DHT22;10455;48.732;10.266;2022-12-07T06:05:40;1.50;99.90
20594;DHT22;10455;48.732;10.266;2022-12-07T06:10:42;1.50;99.90
20594;DHT22;10455;48.732;10.266;2022-12-07T06:15:43;1.70;99.90
20594;DHT22;10455;48.732;10.266;2022-12-07T06:20:47;1.60;99.90
20594;DHT22;10455;48.732;10.266;2022-12-07T06:25:48;1.70;99.90
20594;DHT22;10455;48.732;10.266;2022-12-07T06:30:57;1.70;99.90
20594;DHT22;10455;48.732;10.266;2022-12-07T06:36:00;1.70;99.90
20594;DHT22;10455;48.732;10.266;2022-12-07T06:41:02;1.70;99.90
20594;DHT22;10455;48.732;10.266;2022-12-07T06:46:04;1.60;99.90
20594;DHT22;10455;48.732;10.266;2022-12-07T06:51:08;1.70;99.90
20594;DHT22;10455;48.732;10.266;2022-12-07T06:56:10;1.70;99.90
20594;DHT22;10455;48.732;10.266;2022-12-07T07:01:13;1.80;99.90
20594;DHT22;10455;48.732;10.266;2022-12-07T07:06:17;1.80;99.90
20594;DHT22;10455;48.732;10.266;2022-12-07T07:11:19;1.80;99.90
20594;DHT22;10455;48.732;10.266;2022-12-07T07:16:21;1.80;99.90
20594;DHT22;10455;48.732;10.266;2022-12-07T07:21:24;1.80;99.90
20594;DHT22;10455;48.732;10.266;2022-12-07T07:26:26;1.90;99.90
20594;DHT22;10455;48.732;10.266;2022-12-07T07:31:27;2.00;99.90
20594;DHT22;10455;48.732;10.266;2022-12-07T07:36:31;2.30;99.90
20594;DHT22;10455;48.732;10.266;2022-12-07T07:41:33;2.30;99.90
20594;DHT22;10455;48.732;10.266;2022-12-07T07:46:34;2.30;99.90
20594;DHT22;10455;48.732;10.266;2022-12-07T07:51:38;2.50;99.90
20594;DHT22;10455;48.732;10.266;2022-12-07T07:56:40;2.50;99.90
20594;DHT22;10455;48.732;10.266;2022-12-07T08:01:41;2.60;99.90
20594;DHT22;10455;48.732;10.266;2022-12-07T08:06:45;2.70;99.90
20594;DHT22;10455;48.732;10.266;2022-12-07T08:11:47;2.70;99.90
20594;DHT22;10455;48.732;10.266;2022-12-07T08:16:49;2.80;99.90
20594;DHT22;10455;48.732;10.266;2022-12-07T08:21:52;2.90;99.90
20594;DHT22;10455;48.732;10.266;2022-12-07T08:26:55;3.10;99.90
20594;DHT22;10455;48.732;10.266;2022-12-07T08:31:57;3.10;99.90
20594;DHT22;10455;48.732;10.266;2022-12-07T08:37:02;3.00;99.90
20594;DHT22;10455;48.732;10.266;2022-12-07T08:42:04;3.00;99.90
20594;DHT22;10455;48.732;10.266;2022-12-07T08:47:06;3.20;99.90
20594;DHT22;10455;48.732;10.266;2022-12-07T08:52:11;3.10;99.90
20594;DHT22;10455;48.732;10.266;2022-12-07T08:57:13;3.10;99.90
20594;DHT22;10455;48.732;10.266;2022-12-07T09:02:15;3.20;99.90
20594;DHT22;10455;48.732;10.266;2022-12-07T09:07:18;3.40;99.90
20594;DHT22;10455;48.732;10.266;2022-12-07T09:12:20;3.80;99.90
20594;DHT22;10455;48.732;10.266;2022-12-07T09:17:22;4.10;99.90
20594;DHT22;10455;48.732;10.266;2022-12-07T09:22:28;4.10;99.90
20594;DHT22;10455;48.732;10.266;2022-12-07T09:27:30;4.10;99.90
20594;DHT22;10455;48.732;10.266;2022-12-07T09:32:32;4.20;99.90
20594;DHT22;10455;48.732;10.266;2022-12-07T09:37:35;4.30;99.90
20594;DHT22;10455;48.732;10.266;2022-12-07T09:42:39;4.40;99.90
20594;DHT22;10455;48.732;10.266;2022-12-07T09:47:44;4.30;99.90
20594;DHT22;10455;48.732;10.266;2022-12-07T09:52:48;4.30;99.90
20594;DHT22;10455;48.732;10.266;2022-12-07T09:57:50;4.30;99.90
20594;DHT22;10455;48.732;10.266;2022-12-07T10:02:55;4.10;99.90
20594;DHT22;10455;48.732;10.266;2022-12-07T10:07:58;4.00;99.90
20594;DHT22;10455;48.732;10.266;2022-12-07T10:13:02;4.40;99.90
20594;DHT22;10455;48.732;10.266;2022-12-07T10:18:17;4.50;99.90
20594;DHT22;10455;48.732;10.266;2022-12-07T10:23:20;4.60;99.90
20594;DHT22;10455;48.732;10.266;2022-12-07T10:28:22;4.80;99.90
20594;DHT22;10455;48.732;10.266;2022-12-07T10:33:32;4.90;99.90
20594;DHT22;10455;48.732;10.266;2022-12-07T10:38:44;5.20;99.90
20594;DHT22;10455;48.732;10.266;2022-12-07T10:43:51;5.30;99.90
20594;DHT22;10455;48.732;10.266;2022-12-07T10:49:01;5.70;99.90
20594;DHT22;10455;48.732;10.266;2022-12-07T10:54:12;5.80;99.90
20594;DHT22;10455;48.732;10.266;2022-12-07T10:59:31;6.00;99.90
20594;DHT22;10455;48.732;10.266;2022-12-07T11:04:41;5.90;99.90
20594;DHT22;10455;48.732;10.266;2022-12-07T11:10:02;5.80;99.90
20594;DHT22;10455;48.732;10.266;2022-12-07T11:15:15;5.70;99.90
20594;DHT22;10455;48.732;10.266;2022-12-07T11:20:34;5.80;99.90
20594;DHT22;10455;48.732;10.266;2022-12-07T11:25:45;5.70;99.90
20594;DHT22;10455;48.732;10.266;2022-12-07T11:30:55;5.20;99.90
20594;DHT22;10455;48.732;10.266;2022-12-07T11:36:05;5.20;99.90
20594;DHT22;10455;48.732;10.266;2022-12-07T11:41:13;5.00;99.90
20594;DHT22;10455;48.732;10.266;2022-12-07T11:46:17;4.90;99.90
20594;DHT22;10455;48.732;10.266;2022-12-07T11:51:21;5.00;99.90
20594;DHT22;10455;48.732;10.266;2022-12-07T11:56:26;5.10;99.90
20594;DHT22;10455;48.732;10.266;2022-12-07T12:01:40;4.70;99.90
20594;DHT22;10455;48.732;10.266;2022-12-07T12:06:45;5.20;99.90
20594;DHT22;10455;48.732;10.266;2022-12-07T12:12:01;5.50;99.90
20594;DHT22;10455;48.732;10.266;2022-12-07T12:17:40;5.80;99.90
20594;DHT22;10455;48.732;10.266;2022-12-07T12:22:48;6.00;99.90
20594;DHT22;10455;48.732;10.266;2022-12-07T12:27:56;5.90;99.90
20594;DHT22;10455;48.732;10.266;2022-12-07T12:33:13;5.70;99.90
20594;DHT22;10455;48.732;10.266;2022-12-07T12:38:31;5.30;99.90
20594;DHT22;10455;48.732;10.266;2022-12-07T12:43:46;5.20;99.90
20594;DHT22;10455;48.732;10.266;2022-12-07T12:48:49;5.40;99.90
20594;DHT22;10455;48.732;10.266;2022-12-07T12:53:51;5.40;99.90
20594;DHT22;10455;48.732;10.266;2022-12-07T12:59:21;5.60;99.90
20594;DHT22;10455;48.732;10.266;2022-12-07T13:09:53;5.40;99.90
20594;DHT22;10455;48.732;10.266;2022-12-07T13:14:58;5.50;99.90
20594;DHT22;10455;48.732;10.266;2022-12-07T13:20:00;5.50;99.90
20594;DHT22;10455;48.732;10.266;2022-12-07T13:25:07;5.30;99.90
20594;DHT22;10455;48.732;10.266;2022-12-07T13:30:16;5.40;99.90
20594;DHT22;10455;48.732;10.266;2022-12-07T13:35:29;5.30;99.90
20594;DHT22;10455;48.732;10.266;2022-12-07T13:40:31;4.80;99.90
20594;DHT22;10455;48.732;10.266;2022-12-07T13:45:34;4.80;99.90
20594;DHT22;10455;48.732;10.266;2022-12-07T13:50:55;4.60;99.90
20594;DHT22;10455;48.732;10.266;2022-12-07T13:55:58;4.60;99.90
20594;DHT22;10455;48.732;10.266;2022-12-07T14:01:02;4.90;99.90
20594;DHT22;10455;48.732;10.266;2022-12-07T14:06:22;5.00;99.90
20594;DHT22;10455;48.732;10.266;2022-12-07T14:11:29;5.00;99.90
20594;DHT22;10455;48.732;10.266;2022-12-07T14:16:34;4.80;99.90
20594;DHT22;10455;48.732;10.266;2022-12-07T14:21:37;4.40;99.90
20594;DHT22;10455;48.732;10.266;2022-12-07T14:26:39;4.40;99.90
20594;DHT22;10455;48.732;10.266;2022-12-07T14:31:42;4.40;99.90
20594;DHT22;10455;48.732;10.266;2022-12-07T14:36:44;4.30;99.90
20594;DHT22;10455;48.732;10.266;2022-12-07T14:41:46;4.10;99.90
20594;DHT22;10455;48.732;10.266;2022-12-07T14:46:55;4.00;99.90
20594;DHT22;10455;48.732;10.266;2022-12-07T14:51:58;4.10;99.90
20594;DHT22;10455;48.732;10.266;2022-12-07T14:57:00;4.20;99.90
20594;DHT22;10455;48.732;10.266;2022-12-07T15:02:03;4.30;99.90
20594;DHT22;10455;48.732;10.266;2022-12-07T15:07:09;4.10;99.90
20594;DHT22;10455;48.732;10.266;2022-12-07T15:12:12;4.10;99.90
20594;DHT22;10455;48.732;10.266;2022-12-07T15:17:16;3.90;99.90
20594;DHT22;10455;48.732;10.266;2022-12-07T15:22:17;3.70;99.90
20594;DHT22;10455;48.732;10.266;2022-12-07T15:27:19;3.60;99.90
20594;DHT22;10455;48.732;10.266;2022-12-07T15:32:22;3.50;99.90
20594;DHT22;10455;48.732;10.266;2022-12-07T15:37:26;3.50;99.90
20594;DHT22;10455;48.732;10.266;2022-12-07T15:42:27;3.30;99.90
20594;DHT22;10455;48.732;10.266;2022-12-07T15:47:31;3.20;99.90
20594;DHT22;10455;48.732;10.266;2022-12-07T15:52:33;3.10;99.90
20594;DHT22;10455;48.732;10.266;2022-12-07T15:57:36;3.00;99.90
20594;DHT22;10455;48.732;10.266;2022-12-07T16:02:40;2.90;99.90
20594;DHT22;10455;48.732;10.266;2022-12-07T16:07:41;2.90;99.90
20594;DHT22;10455;48.732;10.266;2022-12-07T16:12:44;3.00;99.90
20594;DHT22;10455;48.732;10.266;2022-12-07T16:17:47;2.90;99.90
20594;DHT22;10455;48.732;10.266;2022-12-07T16:22:51;2.90;99.90
20594;DHT22;10455;48.732;10.266;2022-12-07T16:27:53;2.80;99.90
20594;DHT22;10455;48.732;10.266;2022-12-07T16:32:56;2.70;99.90
20594;DHT22;10455;48.732;10.266;2022-12-07T16:37:58;2.70;99.90
20594;DHT22;10455;48.732;10.266;2022-12-07T16:43:00;2.60;99.90
20594;DHT22;10455;48.732;10.266;2022-12-07T16:48:04;2.40;99.90
20594;DHT22;10455;48.732;10.266;2022-12-07T16:53:06;2.00;99.90
20594;DHT22;10455;48.732;10.266;2022-12-07T16:58:08;1.80;99.90
20594;DHT22;10455;48.732;10.266;2022-12-07T17:03:12;1.80;99.90
20594;DHT22;10455;48.732;10.266;2022-12-07T17:08:14;1.90;99.90
20594;DHT22;10455;48.732;10.266;2022-12-07T17:13:16;2.10;99.90
20594;DHT22;10455;48.732;10.266;2022-12-07T17:18:36;2.10;99.90
20594;DHT22;10455;48.732;10.266;2022-12-07T17:23:38;2.10;99.90
20594;DHT22;10455;48.732;10.266;2022-12-07T17:28:40;2.30;99.90
20594;DHT22;10455;48.732;10.266;2022-12-07T17:33:44;2.40;99.90
20594;DHT22;10455;48.732;10.266;2022-12-07T17:38:46;2.50;99.90
20594;DHT22;10455;48.732;10.266;2022-12-07T17:43:48;2.50;99.90
20594;DHT22;10455;48.732;10.266;2022-12-07T17:48:54;2.50;99.90
20594;DHT22;10455;48.732;10.266;2022-12-07T17:53:56;2.40;99.90
20594;DHT22;10455;48.732;10.266;2022-12-07T17:59:00;2.50;99.90
20594;DHT22;10455;48.732;10.266;2022-12-07T18:04:04;2.50;99.90
20594;DHT22;10455;48.732;10.266;2022-12-07T18:09:06;2.60;99.90
20594;DHT22;10455;48.732;10.266;2022-12-07T18:14:08;2.60;99.90
20594;DHT22;10455;48.732;10.266;2022-12-07T18:19:12;2.60;99.90
20594;DHT22;10455;48.732;10.266;2022-12-07T18:24:16;2.60;99.90
20594;DHT22;10455;48.732;10.266;2022-12-07T18:29:18;2.50;99.90
20594;DHT22;10455;48.732;10.266;2022-12-07T18:34:21;2.60;99.90
20594;DHT22;10455;48.732;10.266;2022-12-07T18:39:23;2.60;99.90
20594;DHT22;10455;48.732;10.266;2022-12-07T18:44:25;2.70;99.90
20594;DHT22;10455;48.732;10.266;2022-12-07T18:49:29;2.70;99.90
20594;DHT22;10455;48.732;10.266;2022-12-07T18:54:31;2.70;99.90
20594;DHT22;10455;48.732;10.266;2022-12-07T18:59:32;2.70;99.90
20594;DHT22;10455;48.732;10.266;2022-12-07T19:04:51;2.70;99.90
20594;DHT22;10455;48.732;10.266;2022-12-07T19:09:53;2.70;99.90
20594;DHT22;10455;48.732;10.266;2022-12-07T19:14:55;2.60;99.90
20594;DHT22;10455;48.732;10.266;2022-12-07T19:19:58;2.60;99.90
20594;DHT22;10455;48.732;10.266;2022-12-07T19:25:00;2.60;99.90
20594;DHT22;10455;48.732;10.266;2022-12-07T19:30:04;2.50;99.90
20594;DHT22;10455;48.732;10.266;2022-12-07T19:35:08;2.60;99.90
20594;DHT22;10455;48.732;10.266;2022-12-07T19:40:11;2.50;99.90
20594;DHT22;10455;48.732;10.266;2022-12-07T19:45:13;2.70;99.90
20594;DHT22;10455;48.732;10.266;2022-12-07T19:50:16;2.70;99.90
20594;DHT22;10455;48.732;10.266;2022-12-07T19:55:18;2.70;99.90
20594;DHT22;10455;48.732;10.266;2022-12-07T20:00:20;2.60;99.90
20594;DHT22;10455;48.732;10.266;2022-12-07T20:05:23;2.60;99.90
20594;DHT22;10455;48.732;10.266;2022-12-07T20:10:25;2.60;99.90
20594;DHT22;10455;48.732;10.266;2022-12-07T20:15:27;2.50;99.90
20594;DHT22;10455;48.732;10.266;2022-12-07T20:20:30;2.40;99.90
20594;DHT22;10455;48.732;10.266;2022-12-07T20:25:34;2.30;99.90
20594;DHT22;10455;48.732;10.266;2022-12-07T20:30:36;2.40;99.90
20594;DHT22;10455;48.732;10.266;2022-12-07T20:35:40;2.40;99.90
20594;DHT22;10455;48.732;10.266;2022-12-07T20:40:45;2.40;99.90
20594;DHT22;10455;48.732;10.266;2022-12-07T20:45:48;2.40;99.90
20594;DHT22;10455;48.732;10.266;2022-12-07T20:50:52;2.50;99.90
20594;DHT22;10455;48.732;10.266;2022-12-07T20:55:54;2.40;99.90
20594;DHT22;10455;48.732;10.266;2022-12-07T21:00:59;2.40;99.90
20594;DHT22;10455;48.732;10.266;2022-12-07T21:06:02;2.40;99.90
20594;DHT22;10455;48.732;10.266;2022-12-07T21:11:07;2.30;99.90
20594;DHT22;10455;48.732;10.266;2022-12-07T21:16:11;2.20;99.90
20594;DHT22;10455;48.732;10.266;2022-12-07T21:21:15;2.20;99.90
20594;DHT22;10455;48.732;10.266;2022-12-07T21:26:20;2.20;99.90
20594;DHT22;10455;48.732;10.266;2022-12-07T21:31:22;2.20;99.90
20594;DHT22;10455;48.732;10.266;2022-12-07T21:36:25;2.30;99.90
20594;DHT22;10455;48.732;10.266;2022-12-07T21:41:29;2.30;99.90
20594;DHT22;10455;48.732;10.266;2022-12-07T21:46:31;2.30;99.90
20594;DHT22;10455;48.732;10.266;2022-12-07T21:51:35;2.20;99.90
20594;DHT22;10455;48.732;10.266;2022-12-07T21:56:39;2.20;99.90
20594;DHT22;10455;48.732;10.266;2022-12-07T22:01:42;2.20;99.90
20594;DHT22;10455;48.732;10.266;2022-12-07T22:06:48;2.20;99.90
20594;DHT22;10455;48.732;10.266;2022-12-07T22:11:50;2.20;99.90
20594;DHT22;10455;48.732;10.266;2022-12-07T22:16:52;2.20;99.90
20594;DHT22;10455;48.732;10.266;2022-12-07T22:21:55;2.10;99.90
20594;DHT22;10455;48.732;10.266;2022-12-07T22:26:58;2.10;99.90
20594;DHT22;10455;48.732;10.266;2022-12-07T22:32:00;2.10;99.90
20594;DHT22;10455;48.732;10.266;2022-12-07T22:37:04;2.10;99.90
20594;DHT22;10455;48.732;10.266;2022-12-07T22:42:05;2.10;99.90
20594;DHT22;10455;48.732;10.266;2022-12-07T22:47:08;2.10;99.90
20594;DHT22;10455;48.732;10.266;2022-12-07T22:52:11;2.10;99.90
20594;DHT22;10455;48.732;10.266;2022-12-07T22:57:13;2.10;99.90
20594;DHT22;10455;48.732;10.266;2022-12-07T23:02:14;2.10;99.90
20594;DHT22;10455;48.732;10.266;2022-12-07T23:07:18;2.00;99.90
20594;DHT22;10455;48.732;10.266;2022-12-07T23:12:20;1.90;99.90
20594;DHT22;10455;48.732;10.266;2022-12-07T23:17:39;1.90;99.90
20594;DHT22;10455;48.732;10.266;2022-12-07T23:22:43;1.80;99.90
20594;DHT22;10455;48.732;10.266;2022-12-07T23:27:44;1.80;99.90
20594;DHT22;10455;48.732;10.266;2022-12-07T23:32:46;1.60;99.90
20594;DHT22;10455;48.732;10.266;2022-12-07T23:37:50;1.50;99.90
20594;DHT22;10455;48.732;10.266;2022-12-07T23:42:51;1.30;99.90
20594;DHT22;10455;48.732;10.266;2022-12-07T23:47:53;1.30;99.90
20594;DHT22;10455;48.732;10.266;2022-12-07T23:52:56;1.30;99.90
20594;DHT22;10455;48.732;10.266;2022-12-07T23:57:58;1.10;99.90
